Time;durP1;ratioP1;P1;durP2;ratioP2;P2;SDS_P1;SDS_P2;PMS_P1;PMS_P2;Temp;Humidity;BMP_temperature;BMP_pressure;BME280_temperature;BME280_humidity;BME280_pressure;Samples;Min_cycle;Max_cycle;Signal;HPM_P1;HPM_P2
2023/08/14 00:02:05;;;;;;;2.17;1.10;;;20.30;99.90;;;;;;4173461;28;20424;-58
2023/08/14 00:04:24;;;;;;;1.85;0.98;;;20.30;99.90;;;;;;4168646;28;20045;-58
2023/08/14 00:06:44;;;;;;;3.53;1.00;;;20.30;99.90;;;;;;4171193;28;20264;-58
2023/08/14 00:09:04;;;;;;;1.35;0.90;;;20.20;99.90;;;;;;4172198;28;20044;-58
2023/08/14 00:11:24;;;;;;;1.10;1.10;;;20.20;99.90;;;;;;4172706;28;20041;-58
2023/08/14 00:13:50;;;;;;;1.00;1.00;;;20.30;99.90;;;;;;4173394;28;20161;-58
2023/08/14 00:16:10;;;;;;;1.10;1.10;;;20.20;99.90;;;;;;4173680;28;20036;-58
2023/08/14 00:18:30;;;;;;;2.45;1.40;;;20.30;99.90;;;;;;4173668;28;20390;-58
2023/08/14 00:20:50;;;;;;;1.00;1.00;;;20.10;99.90;;;;;;4171631;28;20037;-58
2023/08/14 00:23:10;;;;;;;2.88;1.10;;;20.00;99.90;;;;;;4169683;28;20048;-58
2023/08/14 00:25:30;;;;;;;0.93;0.93;;;20.00;99.90;;;;;;4173602;28;20172;-58
2023/08/14 00:27:50;;;;;;;0.90;0.90;;;20.00;99.90;;;;;;4165587;28;20048;-58
2023/08/14 00:30:10;;;;;;;1.15;0.93;;;19.90;99.90;;;;;;4169455;28;20113;-58
2023/08/14 00:32:29;;;;;;;1.85;0.90;;;19.70;99.90;;;;;;4171080;28;20052;-58
2023/08/14 00:34:50;;;;;;;1.20;1.20;;;19.70;99.90;;;;;;4171032;28;20083;-58
2023/08/14 00:37:10;;;;;;;1.20;1.20;;;19.60;99.90;;;;;;4171475;28;20366;-58
2023/08/14 00:39:29;;;;;;;4.43;1.20;;;19.50;99.90;;;;;;4173408;28;20064;-58
2023/08/14 00:41:50;;;;;;;1.00;1.00;;;19.30;99.90;;;;;;4173355;28;20372;-58
2023/08/14 00:44:10;;;;;;;1.95;1.08;;;19.20;99.90;;;;;;4171696;28;20048;-58
2023/08/14 00:46:31;;;;;;;1.00;1.00;;;19.10;99.90;;;;;;4168319;28;20240;-58
2023/08/14 00:48:52;;;;;;;0.90;0.90;;;19.30;99.90;;;;;;4171610;28;20092;-58
2023/08/14 00:51:12;;;;;;;4.22;1.05;;;19.30;99.90;;;;;;4168263;28;20059;-58
2023/08/14 00:53:32;;;;;;;1.23;1.23;;;19.30;99.90;;;;;;4168291;28;20052;-57
2023/08/14 00:55:53;;;;;;;1.35;1.25;;;19.00;99.90;;;;;;4174027;28;20041;-58
2023/08/14 00:58:14;;;;;;;1.20;1.20;;;18.80;99.90;;;;;;4172803;28;20402;-58
2023/08/14 01:00:35;;;;;;;1.35;1.00;;;18.90;99.90;;;;;;4173262;28;20047;-57
2023/08/14 01:02:56;;;;;;;1.15;1.10;;;18.90;99.90;;;;;;4196344;22;20099;-56
2023/08/14 01:05:16;;;;;;;1.02;1.02;;;18.60;99.90;;;;;;4189091;28;20051;-56
2023/08/14 01:07:37;;;;;;;1.88;1.20;;;18.60;99.90;;;;;;4188730;28;20048;-56
2023/08/14 01:09:57;;;;;;;1.35;1.35;;;18.50;99.90;;;;;;4189201;28;20090;-56
2023/08/14 01:12:42;;;;;;;1.67;1.00;;;18.60;99.90;;;;;;4186140;28;20048;-56
2023/08/14 01:15:08;;;;;;;1.10;1.10;;;18.80;99.90;;;;;;4188766;28;20048;-57
2023/08/14 01:17:31;;;;;;;1.30;1.30;;;18.90;99.90;;;;;;4189568;28;20048;-56
2023/08/14 01:19:55;;;;;;;1.30;1.30;;;19.00;99.90;;;;;;4188880;28;20052;-56
2023/08/14 01:22:37;;;;;;;1.08;1.05;;;19.00;99.90;;;;;;4188684;28;20047;-57
2023/08/14 01:25:03;;;;;;;1.45;1.35;;;18.90;99.90;;;;;;4188784;28;20231;-57
2023/08/14 01:27:23;;;;;;;1.77;1.25;;;18.80;99.90;;;;;;4185600;28;20051;-56
2023/08/14 01:29:49;;;;;;;1.60;1.10;;;18.70;99.90;;;;;;4185950;28;20048;-56
2023/08/14 01:32:09;;;;;;;1.10;1.10;;;18.70;99.90;;;;;;4188120;28;20044;-56
2023/08/14 01:34:29;;;;;;;1.20;1.20;;;18.60;99.90;;;;;;4189645;28;20060;-56
2023/08/14 01:37:09;;;;;;;1.67;1.58;;;18.50;99.90;;;;;;4189125;28;20043;-56
2023/08/14 01:39:40;;;;;;;1.83;1.35;;;18.30;99.90;;;;;;4186519;28;20223;-56
2023/08/14 01:42:38;;;;;;;1.27;1.27;;;18.30;99.90;;;;;;4165996;28;20056;-56
2023/08/14 01:45:02;;;;;;;1.10;1.10;;;18.10;99.90;;;;;;4090883;29;20127;-56
2023/08/14 01:47:24;;;;;;;2.35;1.10;;;18.20;99.90;;;;;;4090974;29;20131;-57
2023/08/14 01:49:45;;;;;;;;;;;18.00;99.90;;;;;;4090870;29;20127;-56
2023/08/14 01:52:06;;;;;;;1.50;1.25;;;18.10;99.90;;;;;;4090811;29;19961;-56
2023/08/14 01:54:26;;;;;;;1.80;1.70;;;18.10;99.90;;;;;;4090064;29;20135;-56
2023/08/14 01:56:46;;;;;;;1.70;1.30;;;18.00;99.90;;;;;;4090365;29;20175;-56
2023/08/14 01:59:06;;;;;;;1.40;1.40;;;18.10;99.90;;;;;;4090643;29;20204;-57
2023/08/14 02:01:26;;;;;;;1.10;1.10;;;18.30;99.90;;;;;;4090830;29;20067;-56
2023/08/14 02:03:47;;;;;;;2.00;1.30;;;18.20;99.90;;;;;;4090754;29;20079;-56
2023/08/14 02:06:07;;;;;;;1.30;1.30;;;18.30;99.90;;;;;;4090813;29;20046;-56
2023/08/14 02:08:26;;;;;;;1.65;1.55;;;18.10;99.90;;;;;;4090709;29;20231;-56
2023/08/14 02:10:46;;;;;;;1.35;1.25;;;18.10;99.90;;;;;;4089677;29;20274;-56
2023/08/14 02:13:06;;;;;;;1.30;1.30;;;18.20;99.90;;;;;;4089020;29;20151;-56
2023/08/14 02:15:26;;;;;;;1.77;1.77;;;18.00;99.90;;;;;;4090649;29;20321;-56
2023/08/14 02:17:46;;;;;;;8.50;1.40;;;18.00;99.90;;;;;;4090584;29;20050;-56
2023/08/14 02:20:07;;;;;;;1.17;1.17;;;17.80;99.90;;;;;;4090360;29;20429;-56
2023/08/14 02:22:27;;;;;;;1.50;1.35;;;17.90;99.90;;;;;;4169366;28;20090;-56
2023/08/14 02:24:48;;;;;;;1.30;1.30;;;18.00;99.90;;;;;;4172718;28;20067;-56
2023/08/14 02:27:08;;;;;;;3.33;1.30;;;17.90;99.90;;;;;;4172125;28;20048;-56
2023/08/14 02:29:28;;;;;;;1.42;1.42;;;17.80;99.90;;;;;;4172651;28;20056;-56
2023/08/14 02:31:50;;;;;;;1.00;1.00;;;17.70;99.90;;;;;;4172223;28;20052;-56
2023/08/14 02:34:10;;;;;;;1.08;1.08;;;17.60;99.90;;;;;;4171667;28;20482;-56
2023/08/14 02:36:30;;;;;;;1.35;1.35;;;17.60;99.90;;;;;;4171415;28;20086;-56
2023/08/14 02:38:49;;;;;;;1.50;1.50;;;17.60;99.90;;;;;;4170784;28;20053;-56
2023/08/14 02:41:09;;;;;;;1.52;1.42;;;17.50;99.90;;;;;;4164912;28;20110;-56
2023/08/14 02:43:30;;;;;;;1.50;1.50;;;17.40;99.90;;;;;;4167406;28;20060;-56
2023/08/14 02:45:50;;;;;;;1.42;1.42;;;17.40;99.90;;;;;;4170797;28;20051;-56
2023/08/14 02:48:10;;;;;;;1.40;1.40;;;17.50;99.90;;;;;;4169602;28;20076;-56
2023/08/14 02:50:31;;;;;;;1.40;1.30;;;17.60;99.90;;;;;;4172362;28;20088;-56
2023/08/14 02:52:51;;;;;;;1.50;1.40;;;17.50;99.90;;;;;;4172411;28;20315;-56
2023/08/14 02:55:11;;;;;;;1.30;1.30;;;17.50;99.90;;;;;;4172349;28;20052;-56
2023/08/14 02:57:31;;;;;;;1.60;1.50;;;17.60;99.90;;;;;;4170548;28;20092;-56
2023/08/14 02:59:50;;;;;;;1.52;1.50;;;17.60;99.90;;;;;;4170585;28;20056;-56
2023/08/14 03:02:11;;;;;;;1.40;1.40;;;17.60;99.90;;;;;;4170833;28;20109;-56
2023/08/14 03:04:31;;;;;;;1.48;1.38;;;17.40;99.90;;;;;;4171684;28;20057;-56
2023/08/14 03:06:51;;;;;;;1.50;1.50;;;17.20;99.90;;;;;;4170772;28;20057;-57
2023/08/14 03:09:11;;;;;;;1.48;1.38;;;17.10;99.90;;;;;;4170278;28;20267;-56
2023/08/14 03:11:31;;;;;;;1.70;1.70;;;17.10;99.90;;;;;;4171902;28;20052;-56
2023/08/14 03:13:51;;;;;;;1.88;1.77;;;17.20;99.90;;;;;;4171875;28;20049;-56
2023/08/14 03:16:12;;;;;;;1.48;1.30;;;17.00;99.90;;;;;;4171517;28;20052;-56
2023/08/14 03:18:32;;;;;;;2.28;2.17;;;17.00;99.90;;;;;;4172099;28;20060;-56
2023/08/14 03:20:52;;;;;;;1.60;1.50;;;17.10;99.90;;;;;;4172070;28;20095;-56
2023/08/14 03:23:12;;;;;;;1.40;1.30;;;17.30;99.90;;;;;;4170089;28;20113;-56
2023/08/14 03:25:32;;;;;;;2.45;1.90;;;17.30;99.90;;;;;;4170117;28;20232;-56
2023/08/14 03:27:51;;;;;;;1.77;1.77;;;17.20;99.90;;;;;;4170831;28;20087;-56
2023/08/14 03:30:12;;;;;;;2.05;1.95;;;17.00;99.90;;;;;;4172055;28;20079;-56
2023/08/14 03:32:32;;;;;;;1.48;1.48;;;16.90;99.90;;;;;;4170829;28;20071;-56
2023/08/14 03:34:53;;;;;;;4.30;1.38;;;16.90;99.90;;;;;;4174677;28;20055;-56
2023/08/14 03:37:13;;;;;;;1.35;1.35;;;16.90;99.90;;;;;;4174364;28;20063;-56
2023/08/14 03:39:33;;;;;;;1.52;1.50;;;16.90;99.90;;;;;;4174567;28;20109;-56
2023/08/14 03:41:52;;;;;;;1.55;1.50;;;17.00;99.90;;;;;;4174563;28;20087;-56
2023/08/14 03:44:12;;;;;;;5.57;1.73;;;17.10;99.90;;;;;;4172097;28;20092;-56
2023/08/14 03:46:32;;;;;;;1.42;1.30;;;17.10;99.90;;;;;;4171663;28;20424;-56
2023/08/14 03:48:53;;;;;;;2.05;1.77;;;16.90;99.90;;;;;;4174654;28;20052;-56
2023/08/14 03:51:12;;;;;;;2.30;2.20;;;16.80;99.90;;;;;;4174610;28;20359;-56
2023/08/14 03:53:33;;;;;;;1.70;1.70;;;16.70;99.90;;;;;;4174542;28;20045;-56
2023/08/14 03:55:53;;;;;;;1.60;1.60;;;16.60;99.90;;;;;;4174157;28;20055;-56
2023/08/14 03:58:13;;;;;;;2.45;1.80;;;16.50;99.90;;;;;;4173686;28;20384;-56
2023/08/14 04:00:33;;;;;;;1.80;1.80;;;16.40;99.90;;;;;;4173677;28;20059;-56
2023/08/14 04:02:53;;;;;;;1.92;1.83;;;16.40;99.90;;;;;;4174271;28;20064;-56
2023/08/14 04:05:14;;;;;;;2.08;1.75;;;16.30;99.90;;;;;;4172781;28;20075;-56
2023/08/14 04:07:34;;;;;;;2.15;1.85;;;16.40;99.90;;;;;;4174488;28;20092;-56
2023/08/14 04:09:55;;;;;;;1.75;1.65;;;16.50;99.90;;;;;;4173025;28;20366;-56
2023/08/14 04:12:14;;;;;;;1.80;1.70;;;16.70;99.90;;;;;;4174202;28;20076;-56
2023/08/14 04:14:35;;;;;;;1.60;1.60;;;16.80;99.90;;;;;;4168892;28;20152;-56
2023/08/14 04:16:56;;;;;;;2.80;2.45;;;16.70;99.90;;;;;;4174054;28;20228;-57
2023/08/14 04:19:19;;;;;;;6.07;2.33;;;16.60;99.90;;;;;;4172791;28;20048;-56
2023/08/14 04:21:40;;;;;;;2.55;2.45;;;16.70;99.90;;;;;;4172822;28;20072;-56
2023/08/14 04:24:00;;;;;;;1.92;1.92;;;16.60;99.90;;;;;;4172003;28;20051;-56
2023/08/14 04:26:19;;;;;;;1.98;1.98;;;16.70;99.90;;;;;;4173060;28;20051;-56
2023/08/14 04:28:39;;;;;;;2.00;1.90;;;16.80;99.90;;;;;;4173453;28;20048;-56
2023/08/14 04:30:59;;;;;;;2.28;2.17;;;16.90;99.90;;;;;;4174125;28;20041;-56
2023/08/14 04:33:19;;;;;;;1.83;1.83;;;16.90;99.90;;;;;;4174115;28;20045;-56
2023/08/14 04:35:40;;;;;;;2.67;2.58;;;16.90;99.90;;;;;;4162949;28;20084;-56
2023/08/14 04:37:59;;;;;;;1.88;1.88;;;16.80;99.90;;;;;;4166287;28;20044;-56
2023/08/14 04:40:20;;;;;;;2.33;2.33;;;16.70;99.90;;;;;;4172254;28;20060;-56
2023/08/14 04:42:40;;;;;;;3.22;2.53;;;16.60;99.90;;;;;;4163401;28;20432;-56
2023/08/14 04:45:02;;;;;;;1.90;1.90;;;16.60;99.90;;;;;;4172801;28;20056;-56
2023/08/14 04:47:22;;;;;;;3.15;2.13;;;16.70;99.90;;;;;;4168004;28;20045;-56
2023/08/14 04:49:42;;;;;;;5.82;2.42;;;16.50;99.90;;;;;;4172779;28;20051;-55
2023/08/14 04:52:02;;;;;;;2.13;2.03;;;16.50;99.90;;;;;;4173906;28;20100;-56
2023/08/14 04:54:23;;;;;;;2.30;2.20;;;16.70;99.90;;;;;;4170541;28;20275;-56
2023/08/14 04:56:43;;;;;;;3.63;1.63;;;16.80;99.90;;;;;;4172869;28;20048;-56
2023/08/14 04:59:03;;;;;;;1.63;1.63;;;16.70;99.90;;;;;;4173868;28;20331;-56
2023/08/14 05:01:24;;;;;;;3.60;2.10;;;16.70;99.90;;;;;;4173577;28;20064;-56
2023/08/14 05:03:44;;;;;;;1.60;1.50;;;16.60;99.90;;;;;;4172656;28;20049;-55
2023/08/14 05:06:04;;;;;;;2.70;2.50;;;16.50;99.90;;;;;;4162058;28;20048;-56
2023/08/14 05:08:24;;;;;;;2.05;1.90;;;16.40;99.90;;;;;;4173378;28;20390;-56
2023/08/14 05:10:52;;;;;;;2.13;1.98;;;16.30;99.90;;;;;;4172829;28;20060;-56
2023/08/14 05:13:12;;;;;;;2.38;2.20;;;16.20;99.90;;;;;;4165992;28;20049;-57
2023/08/14 05:15:32;;;;;;;2.17;1.50;;;16.20;99.90;;;;;;4173419;28;20080;-56
2023/08/14 05:17:52;;;;;;;2.40;2.20;;;16.40;99.90;;;;;;4169011;28;20045;-56
2023/08/14 05:20:13;;;;;;;2.63;2.42;;;16.30;99.90;;;;;;4170601;28;20053;-56
2023/08/14 05:22:33;;;;;;;2.00;2.00;;;16.30;99.90;;;;;;4172503;28;20063;-57
2023/08/14 05:24:53;;;;;;;2.35;2.15;;;16.30;99.90;;;;;;4172464;28;20085;-57
2023/08/14 05:27:13;;;;;;;2.60;1.92;;;16.30;99.90;;;;;;4173442;28;20057;-57
2023/08/14 05:29:33;;;;;;;2.50;2.13;;;16.30;99.90;;;;;;4173127;28;20068;-57
2023/08/14 05:31:53;;;;;;;1.95;1.92;;;16.40;99.90;;;;;;4169414;28;20052;-57
2023/08/14 05:34:13;;;;;;;2.53;2.33;;;16.50;99.90;;;;;;4169767;28;20056;-56
2023/08/14 05:36:32;;;;;;;1.50;1.50;;;16.60;99.90;;;;;;4173272;28;20103;-56
2023/08/14 05:38:55;;;;;;;1.48;1.48;;;16.80;99.90;;;;;;4172035;28;20087;-56
2023/08/14 05:41:15;;;;;;;;;;;16.90;99.90;;;;;;4170759;28;20048;-56
2023/08/14 05:43:35;;;;;;;1.60;1.40;;;16.90;99.90;;;;;;4173168;28;20227;-56
2023/08/14 05:45:55;;;;;;;2.63;1.73;;;17.00;99.90;;;;;;4172117;28;20052;-57
2023/08/14 05:48:15;;;;;;;1.83;1.75;;;17.10;99.90;;;;;;4173108;28;20064;-57
2023/08/14 05:50:36;;;;;;;2.45;2.40;;;17.20;99.90;;;;;;4171797;28;20052;-56
2023/08/14 05:52:59;;;;;;;2.03;1.90;;;17.40;99.90;;;;;;4170647;28;20233;-57
2023/08/14 05:55:19;;;;;;;1.88;1.70;;;17.80;99.90;;;;;;4172840;28;20422;-56
2023/08/14 05:57:39;;;;;;;1.77;1.67;;;17.90;99.90;;;;;;4171887;28;20048;-56
2023/08/14 05:59:59;;;;;;;1.48;1.40;;;18.30;99.90;;;;;;4169776;28;20364;-56
2023/08/14 06:02:19;;;;;;;1.40;1.40;;;18.60;99.90;;;;;;4172632;28;20299;-57
2023/08/14 06:04:40;;;;;;;1.33;1.25;;;18.70;99.90;;;;;;4170945;28;20088;-57
2023/08/14 06:07:00;;;;;;;1.33;1.25;;;18.70;99.90;;;;;;4167128;28;20056;-57
2023/08/14 06:09:21;;;;;;;1.30;1.30;;;18.90;99.90;;;;;;4171879;28;20108;-57
2023/08/14 06:11:43;;;;;;;2.70;1.20;;;19.00;99.90;;;;;;4171716;28;20083;-56
2023/08/14 06:14:03;;;;;;;1.38;1.38;;;19.10;99.90;;;;;;4170693;28;20044;-56
2023/08/14 06:16:23;;;;;;;1.58;1.48;;;19.30;99.90;;;;;;4170326;28;20036;-57
2023/08/14 06:18:43;;;;;;;1.30;1.30;;;19.40;99.90;;;;;;4170326;28;20406;-56
2023/08/14 06:21:03;;;;;;;6.95;1.27;;;19.60;99.90;;;;;;4171454;28;20044;-57
2023/08/14 06:23:23;;;;;;;1.40;1.40;;;19.70;99.90;;;;;;4171624;28;20044;-56
2023/08/14 06:25:43;;;;;;;2.20;1.20;;;19.90;99.90;;;;;;4172641;28;20324;-57
2023/08/14 06:28:04;;;;;;;1.30;1.30;;;20.00;99.90;;;;;;4171771;28;20053;-56
2023/08/14 06:30:25;;;;;;;1.30;1.30;;;20.00;99.90;;;;;;4166000;28;20045;-57
2023/08/14 06:32:45;;;;;;;1.63;1.00;;;20.10;99.90;;;;;;4171404;28;20048;-57
2023/08/14 06:35:06;;;;;;;2.42;1.10;;;20.30;99.90;;;;;;4172597;28;20072;-56
2023/08/14 06:37:26;;;;;;;1.25;1.15;;;20.50;99.90;;;;;;4172444;28;20407;-57
2023/08/14 06:39:46;;;;;;;1.00;1.00;;;20.70;99.90;;;;;;4171613;28;20060;-56
2023/08/14 06:42:06;;;;;;;1.50;1.00;;;20.90;99.90;;;;;;4170224;28;20044;-56
2023/08/14 06:44:26;;;;;;;1.55;1.10;;;21.20;99.90;;;;;;4170464;28;20040;-56
2023/08/14 06:46:47;;;;;;;1.75;1.00;;;21.50;99.90;;;;;;4172393;28;20043;-56
2023/08/14 06:49:07;;;;;;;1.10;1.10;;;21.60;99.90;;;;;;4171688;28;20095;-57
2023/08/14 06:51:27;;;;;;;2.55;1.10;;;21.90;99.20;;;;;;4171399;28;20048;-57
2023/08/14 06:53:46;;;;;;;1.40;1.00;;;22.10;98.20;;;;;;4170119;28;20095;-56
2023/08/14 06:56:06;;;;;;;1.48;0.90;;;22.30;97.50;;;;;;4171435;28;20371;-56
2023/08/14 06:58:26;;;;;;;4.43;0.80;;;22.60;97.30;;;;;;4169239;28;20095;-57
2023/08/14 07:00:48;;;;;;;1.10;0.88;;;23.00;96.00;;;;;;4169482;28;20371;-57
2023/08/14 07:03:07;;;;;;;2.05;0.85;;;23.30;95.60;;;;;;4169503;28;20096;-56
2023/08/14 07:05:28;;;;;;;1.33;1.20;;;23.50;95.70;;;;;;4172183;28;20086;-56
2023/08/14 07:07:48;;;;;;;2.15;0.80;;;23.60;95.20;;;;;;4172712;28;20056;-56
2023/08/14 07:10:08;;;;;;;1.52;0.70;;;24.00;94.70;;;;;;4174193;28;20169;-57
2023/08/14 07:12:28;;;;;;;0.80;0.80;;;24.20;94.10;;;;;;4174487;28;20243;-56
2023/08/14 07:14:48;;;;;;;2.05;0.80;;;24.40;93.30;;;;;;4173728;28;20048;-57
2023/08/14 07:17:10;;;;;;;0.77;0.77;;;24.60;93.80;;;;;;4174398;28;20075;-57
2023/08/14 07:19:31;;;;;;;1.65;0.70;;;24.90;93.60;;;;;;4173963;28;20049;-57
2023/08/14 07:21:51;;;;;;;1.55;0.77;;;25.10;93.00;;;;;;4173823;28;20067;-56
2023/08/14 07:24:12;;;;;;;1.55;0.80;;;25.40;92.30;;;;;;4174387;28;20052;-57
2023/08/14 07:26:32;;;;;;;1.80;0.80;;;25.60;91.30;;;;;;4174202;28;20394;-57
2023/08/14 07:28:52;;;;;;;2.58;1.23;;;25.80;91.60;;;;;;4175003;28;20060;-57
2023/08/14 07:31:12;;;;;;;1.75;0.77;;;25.90;91.60;;;;;;4172025;28;20271;-57
2023/08/14 07:33:32;;;;;;;2.33;0.60;;;26.00;91.40;;;;;;4174826;28;20053;-57
2023/08/14 07:35:54;;;;;;;0.98;0.70;;;26.30;90.30;;;;;;4171556;28;20104;-57
2023/08/14 07:38:15;;;;;;;1.75;0.60;;;26.60;89.00;;;;;;4174250;28;20048;-56
2023/08/14 07:40:35;;;;;;;1.33;0.60;;;26.70;85.50;;;;;;4173907;28;20088;-57
2023/08/14 07:42:54;;;;;;;1.02;0.70;;;26.90;84.50;;;;;;4172935;28;20052;-57
2023/08/14 07:45:14;;;;;;;1.77;0.60;;;26.90;84.10;;;;;;4174700;28;20053;-57
2023/08/14 07:47:35;;;;;;;1.45;0.55;;;27.20;84.70;;;;;;4173499;28;20045;-57
2023/08/14 07:49:55;;;;;;;1.90;0.60;;;27.60;85.50;;;;;;4174191;28;20287;-57
2023/08/14 07:52:15;;;;;;;1.20;0.60;;;27.80;83.70;;;;;;4174575;28;20052;-57
2023/08/14 07:54:35;;;;;;;0.60;0.60;;;28.00;84.50;;;;;;4174518;28;20431;-57
2023/08/14 07:56:55;;;;;;;0.70;0.70;;;28.00;83.40;;;;;;4173178;28;20371;-57
2023/08/14 07:59:16;;;;;;;0.65;0.60;;;28.40;84.20;;;;;;4174411;28;20125;-56
2023/08/14 08:01:36;;;;;;;0.60;0.60;;;28.70;82.80;;;;;;4173944;28;20390;-57
2023/08/14 08:03:57;;;;;;;0.60;0.50;;;28.80;82.20;;;;;;4174096;28;20347;-56
2023/08/14 08:06:17;;;;;;;0.60;0.60;;;28.90;79.60;;;;;;4171954;28;20053;-57
2023/08/14 08:08:36;;;;;;;0.65;0.65;;;29.00;79.50;;;;;;4173949;28;20040;-57
2023/08/14 08:10:56;;;;;;;0.50;0.50;;;29.00;80.40;;;;;;4174396;28;20229;-57
2023/08/14 08:13:18;;;;;;;0.50;0.50;;;29.20;79.20;;;;;;4172742;28;20049;-57
2023/08/14 08:15:38;;;;;;;1.20;0.60;;;29.70;78.80;;;;;;4174244;28;20068;-56
2023/08/14 08:17:58;;;;;;;1.10;0.63;;;29.90;75.80;;;;;;4173543;28;20056;-57
2023/08/14 08:20:18;;;;;;;0.50;0.50;;;30.00;75.80;;;;;;4172493;28;20076;-57
2023/08/14 08:22:38;;;;;;;1.75;0.60;;;30.30;75.40;;;;;;4173115;28;20048;-57
2023/08/14 08:24:58;;;;;;;1.73;0.80;;;30.40;74.70;;;;;;4170439;28;20091;-57
2023/08/14 08:27:18;;;;;;;3.15;0.52;;;30.70;76.30;;;;;;4174193;28;20060;-57
2023/08/14 08:29:37;;;;;;;1.23;0.60;;;30.90;75.30;;;;;;4174169;28;20099;-56
2023/08/14 08:31:57;;;;;;;0.98;0.63;;;31.10;76.50;;;;;;4171874;28;20080;-56
2023/08/14 08:34:17;;;;;;;0.80;0.60;;;31.30;74.40;;;;;;4173463;28;20048;-57
2023/08/14 08:36:37;;;;;;;3.20;0.50;;;31.50;74.80;;;;;;4170671;28;20386;-57
2023/08/14 08:38:57;;;;;;;3.08;0.50;;;31.50;73.40;;;;;;4173352;28;20052;-57
2023/08/14 08:41:38;;;;;;;1.17;0.50;;;31.40;71.90;;;;;;4173749;28;20061;-57
2023/08/14 08:44:07;;;;;;;0.52;0.50;;;31.60;72.80;;;;;;4171259;28;20061;-57
2023/08/14 08:46:29;;;;;;;0.60;0.60;;;31.80;73.50;;;;;;4173408;28;20378;-57
2023/08/14 08:48:51;;;;;;;0.50;0.50;;;32.10;73.60;;;;;;4170546;28;20342;-57
2023/08/14 08:51:11;;;;;;;2.75;0.82;;;32.20;74.40;;;;;;4173886;28;20048;-57
2023/08/14 08:53:31;;;;;;;1.30;0.47;;;32.30;73.50;;;;;;4170979;28;20096;-57
2023/08/14 08:55:51;;;;;;;2.05;0.68;;;32.30;73.40;;;;;;4173771;28;20056;-57
2023/08/14 08:58:15;;;;;;;1.60;0.50;;;32.30;73.90;;;;;;4172045;28;20041;-57
2023/08/14 09:00:35;;;;;;;1.80;0.60;;;32.50;75.20;;;;;;4171590;28;20052;-57
2023/08/14 09:02:55;;;;;;;1.60;0.60;;;32.50;75.20;;;;;;4166175;28;20057;-57
2023/08/14 09:05:15;;;;;;;4.90;0.50;;;32.60;75.20;;;;;;4169451;28;20044;-57
2023/08/14 09:07:35;;;;;;;1.60;0.50;;;32.70;75.30;;;;;;4171082;28;20103;-57
2023/08/14 09:09:56;;;;;;;1.38;0.40;;;33.00;76.50;;;;;;4173064;28;20083;-57
2023/08/14 09:12:16;;;;;;;0.50;0.45;;;33.00;76.20;;;;;;4172114;28;20083;-57
2023/08/14 09:14:44;;;;;;;0.40;0.40;;;32.90;76.20;;;;;;4173639;28;20056;-57
2023/08/14 09:17:05;;;;;;;2.10;0.43;;;33.10;77.20;;;;;;4173501;28;20120;-57
2023/08/14 09:19:26;;;;;;;1.27;0.40;;;33.30;76.20;;;;;;4173068;28;20092;-57
2023/08/14 09:21:47;;;;;;;0.40;0.40;;;33.30;73.90;;;;;;4171748;28;20041;-57
2023/08/14 09:24:10;;;;;;;0.77;0.40;;;33.10;75.30;;;;;;4173472;28;20052;-57
2023/08/14 09:26:30;;;;;;;0.40;0.40;;;33.40;77.70;;;;;;4173428;28;20297;-57
2023/08/14 09:28:52;;;;;;;0.40;0.40;;;33.50;73.10;;;;;;4173425;28;20056;-57
2023/08/14 09:31:13;;;;;;;0.43;0.32;;;33.60;73.00;;;;;;4170350;28;20303;-57
2023/08/14 09:33:34;;;;;;;0.43;0.43;;;33.80;73.10;;;;;;4173362;28;20287;-57
2023/08/14 09:35:54;;;;;;;1.45;0.40;;;33.90;71.50;;;;;;4171178;28;20052;-57
2023/08/14 09:38:15;;;;;;;0.40;0.40;;;34.10;74.10;;;;;;4171295;28;20402;-58
2023/08/14 09:40:35;;;;;;;0.40;0.40;;;34.20;71.50;;;;;;4173154;28;20098;-58
2023/08/14 09:42:56;;;;;;;0.30;0.30;;;33.80;70.90;;;;;;4171064;28;20056;-58
2023/08/14 09:45:18;;;;;;;2.25;0.50;;;34.20;72.60;;;;;;4173258;28;20045;-57
2023/08/14 09:47:41;;;;;;;1.95;0.30;;;34.20;70.60;;;;;;4172998;28;20068;-57
2023/08/14 09:50:01;;;;;;;0.40;0.40;;;34.00;71.30;;;;;;4172584;28;20052;-57
2023/08/14 09:52:24;;;;;;;0.40;0.35;;;33.90;71.50;;;;;;4171865;28;20083;-57
2023/08/14 09:54:44;;;;;;;;;;;34.10;72.30;;;;;;4170322;28;20052;-57
2023/08/14 09:57:04;;;;;;;0.40;0.40;;;34.30;71.30;;;;;;4173021;28;19956;-57
2023/08/14 09:59:28;;;;;;;0.43;0.43;;;34.80;74.00;;;;;;4172174;28;20416;-57
2023/08/14 10:01:49;;;;;;;0.30;0.30;;;34.90;70.10;;;;;;4172107;28;20053;-58
2023/08/14 10:04:09;;;;;;;0.40;0.40;;;34.70;70.40;;;;;;4172438;28;20056;-58
2023/08/14 10:06:29;;;;;;;0.30;0.30;;;34.70;70.00;;;;;;4172902;28;20287;-58
2023/08/14 10:08:54;;;;;;;0.40;0.40;;;34.90;70.50;;;;;;4172755;28;20047;-58
2023/08/14 10:11:16;;;;;;;0.40;0.40;;;34.80;69.50;;;;;;4172262;28;20152;-58
2023/08/14 10:13:45;;;;;;;0.50;0.50;;;34.90;70.40;;;;;;4171984;28;20236;-58
2023/08/14 10:16:09;;;;;;;1.40;0.30;;;35.20;69.70;;;;;;4172824;28;20135;-57
2023/08/14 10:18:31;;;;;;;0.68;0.30;;;35.10;67.90;;;;;;4172571;28;20044;-57
2023/08/14 10:20:54;;;;;;;0.45;0.40;;;34.50;68.00;;;;;;4172243;28;20057;-57
2023/08/14 10:23:14;;;;;;;0.40;0.40;;;33.80;67.90;;;;;;4167909;28;20121;-57
2023/08/14 10:25:38;;;;;;;2.15;0.30;;;33.70;69.20;;;;;;4171968;28;20146;-57
2023/08/14 10:27:59;;;;;;;0.63;0.40;;;33.90;68.80;;;;;;4170824;28;20061;-57
2023/08/14 10:30:22;;;;;;;0.60;0.40;;;34.00;69.60;;;;;;4170459;28;20386;-58
2023/08/14 10:32:43;;;;;;;0.63;0.32;;;34.30;69.80;;;;;;4172623;28;20036;-58
2023/08/14 10:35:04;;;;;;;0.83;0.40;;;34.70;70.20;;;;;;4172684;28;20064;-57
2023/08/14 10:37:40;;;;;;;0.40;0.40;;;34.90;67.30;;;;;;4171144;28;20096;-57
2023/08/14 10:40:27;;;;;;;0.40;0.40;;;34.90;68.90;;;;;;4171230;28;20278;-58
2023/08/14 10:42:51;;;;;;;0.40;0.40;;;34.40;67.80;;;;;;4169806;28;20410;-57
2023/08/14 10:45:11;;;;;;;1.55;0.40;;;34.30;67.20;;;;;;4171983;28;20049;-57
2023/08/14 10:47:31;;;;;;;1.38;0.40;;;34.30;67.20;;;;;;4171548;28;20084;-57
2023/08/14 10:49:51;;;;;;;1.45;0.50;;;34.30;67.70;;;;;;4172014;28;20044;-57
2023/08/14 10:52:15;;;;;;;0.40;0.40;;;34.30;67.50;;;;;;4169560;28;20107;-57
2023/08/14 10:54:39;;;;;;;0.40;0.40;;;34.30;67.60;;;;;;4171169;28;20251;-58
2023/08/14 10:57:00;;;;;;;0.50;0.38;;;34.20;66.90;;;;;;4172313;28;20060;-58
2023/08/14 10:59:28;;;;;;;0.63;0.40;;;34.30;67.00;;;;;;4172307;28;20244;-58
2023/08/14 11:02:13;;;;;;;0.40;0.40;;;34.60;66.20;;;;;;4169647;28;20280;-57
2023/08/14 11:04:36;;;;;;;1.80;0.50;;;34.50;65.80;;;;;;4170237;28;20056;-57
2023/08/14 11:07:08;;;;;;;1.05;0.40;;;34.60;66.00;;;;;;4172242;28;20328;-57
2023/08/14 11:09:31;;;;;;;0.30;0.30;;;34.50;66.00;;;;;;4170843;28;20087;-58
2023/08/14 11:11:55;;;;;;;0.30;0.30;;;34.80;65.80;;;;;;4171279;28;20049;-58
2023/08/14 11:14:15;;;;;;;1.10;0.40;;;34.80;65.40;;;;;;4171876;28;20052;-57
2023/08/14 11:16:35;;;;;;;0.35;0.35;;;34.60;64.60;;;;;;4171945;28;20084;-58
2023/08/14 11:18:56;;;;;;;0.40;0.40;;;34.70;65.50;;;;;;4154785;28;20060;-57
2023/08/14 11:21:18;;;;;;;0.30;0.30;;;35.20;66.40;;;;;;4171872;28;20068;-58
2023/08/14 11:23:51;;;;;;;2.80;0.60;;;35.00;66.40;;;;;;4165297;28;20383;-58
2023/08/14 11:26:11;;;;;;;0.30;0.30;;;35.30;67.10;;;;;;4171458;28;20048;-58
2023/08/14 11:28:34;;;;;;;1.85;0.30;;;35.60;64.90;;;;;;4171934;28;20052;-58
2023/08/14 11:30:55;;;;;;;0.30;0.30;;;35.30;64.90;;;;;;4171681;28;20228;-57
2023/08/14 11:33:15;;;;;;;0.32;0.32;;;35.40;66.70;;;;;;4172076;28;20048;-58
2023/08/14 11:35:35;;;;;;;0.32;0.30;;;35.80;64.90;;;;;;4171742;28;20379;-57
2023/08/14 11:37:55;;;;;;;0.30;0.30;;;35.80;63.90;;;;;;4170895;28;20121;-58
2023/08/14 11:40:18;;;;;;;0.30;0.30;;;35.50;65.40;;;;;;4171152;28;20075;-58
2023/08/14 11:42:39;;;;;;;0.30;0.30;;;35.90;65.10;;;;;;4170363;28;20061;-58
2023/08/14 11:45:03;;;;;;;;;;;36.10;63.60;;;;;;4172202;28;20048;-57
2023/08/14 11:47:23;;;;;;;0.40;0.40;;;36.10;63.00;;;;;;4171968;28;19985;-58
2023/08/14 11:49:43;;;;;;;0.60;0.30;;;35.90;63.60;;;;;;4171632;28;20087;-58
2023/08/14 11:52:04;;;;;;;0.65;0.30;;;35.70;63.90;;;;;;4171721;28;20281;-58
2023/08/14 11:54:24;;;;;;;0.30;0.30;;;35.50;65.80;;;;;;4172866;28;20164;-58
2023/08/14 11:56:47;;;;;;;0.30;0.30;;;35.50;63.90;;;;;;4168813;28;20060;-58
2023/08/14 11:59:07;;;;;;;0.55;0.50;;;35.60;64.00;;;;;;4174495;28;20368;-58
2023/08/14 12:01:27;;;;;;;0.38;0.38;;;36.00;65.20;;;;;;4173251;28;20075;-58
2023/08/14 12:03:47;;;;;;;0.30;0.30;;;36.10;66.20;;;;;;4169230;28;20406;-58
2023/08/14 12:06:07;;;;;;;0.40;0.30;;;36.10;65.60;;;;;;4170254;28;20045;-58
2023/08/14 12:08:29;;;;;;;0.40;0.30;;;36.20;64.20;;;;;;4173428;28;20055;-57
2023/08/14 12:10:49;;;;;;;0.30;0.30;;;36.20;63.30;;;;;;4173813;28;20084;-57
2023/08/14 12:13:10;;;;;;;0.30;0.30;;;36.00;63.90;;;;;;4173816;28;20047;-57
2023/08/14 12:15:31;;;;;;;1.17;0.40;;;36.20;64.20;;;;;;4174409;28;20084;-58
2023/08/14 12:17:51;;;;;;;1.33;0.30;;;36.10;62.50;;;;;;4174377;28;20248;-57